sensor_id;sensor_type;location;lat;lon;timestamp;pressure;altitude;pressure_sealevel;temperature;humidity
44001;BME280;29660;42.892;24.710;2024-02-26T00:00:12;96506.25;;;8.87;100.00
44001;BME280;29660;42.892;24.710;2024-02-26T00:05:34;96549.94;;;9.19;100.00
44001;BME280;29660;42.892;24.710;2024-02-26T00:10:58;96550.94;;;9.23;100.00
44001;BME280;29660;42.892;24.710;2024-02-26T00:16:20;96547.38;;;9.14;100.00
44001;BME280;29660;42.892;24.710;2024-02-26T00:21:42;96530.84;;;9.17;100.00
44001;BME280;29660;42.892;24.710;2024-02-26T00:27:05;96544.72;;;9.14;100.00
44001;BME280;29660;42.892;24.710;2024-02-26T00:32:27;96535.06;;;9.18;100.00
44001;BME280;29660;42.892;24.710;2024-02-26T00:37:49;96533.63;;;9.25;100.00
44001;BME280;29660;42.892;24.710;2024-02-26T00:43:11;96531.06;;;9.20;100.00
44001;BME280;29660;42.892;24.710;2024-02-26T00:48:33;96403.22;;;8.41;100.00
44001;BME280;29660;42.892;24.710;2024-02-26T00:53:55;96521.28;;;9.16;100.00
44001;BME280;29660;42.892;24.710;2024-02-26T00:59:18;96511.91;;;9.18;100.00
44001;BME280;29660;42.892;24.710;2024-02-26T01:04:40;96489.81;;;9.04;100.00
44001;BME280;29660;42.892;24.710;2024-02-26T01:10:02;96509.47;;;9.22;100.00
44001;BME280;29660;42.892;24.710;2024-02-26T01:15:24;96504.38;;;9.25;100.00
44001;BME280;29660;42.892;24.710;2024-02-26T01:20:47;96414.78;;;8.69;100.00
44001;BME280;29660;42.892;24.710;2024-02-26T01:26:09;96497.94;;;9.26;100.00
44001;BME280;29660;42.892;24.710;2024-02-26T01:31:31;96461.81;;;9.06;100.00
44001;BME280;29660;42.892;24.710;2024-02-26T01:36:54;96495.03;;;9.28;100.00
44001;BME280;29660;42.892;24.710;2024-02-26T01:42:18;96503.56;;;9.44;100.00
44001;BME280;29660;42.892;24.710;2024-02-26T01:47:40;96481.06;;;9.36;100.00
44001;BME280;29660;42.892;24.710;2024-02-26T01:53:05;96503.94;;;9.51;100.00
44001;BME280;29660;42.892;24.710;2024-02-26T01:58:28;96425.97;;;9.04;100.00
44001;BME280;29660;42.892;24.710;2024-02-26T02:03:54;96493.69;;;9.44;100.00
44001;BME280;29660;42.892;24.710;2024-02-26T02:09:16;96403.50;;;8.77;100.00
44001;BME280;29660;42.892;24.710;2024-02-26T02:14:38;96487.53;;;9.30;100.00
44001;BME280;29660;42.892;24.710;2024-02-26T02:20:01;96448.44;;;9.12;100.00
44001;BME280;29660;42.892;24.710;2024-02-26T02:25:23;96451.50;;;9.19;100.00
44001;BME280;29660;42.892;24.710;2024-02-26T02:30:45;96425.31;;;9.26;100.00
44001;BME280;29660;42.892;24.710;2024-02-26T02:36:08;96496.38;;;10.32;100.00
44001;BME280;29660;42.892;24.710;2024-02-26T02:41:32;96495.94;;;10.80;100.00
44001;BME280;29660;42.892;24.710;2024-02-26T02:46:54;96493.56;;;11.15;100.00
44001;BME280;29660;42.892;24.710;2024-02-26T02:52:16;96476.97;;;11.40;100.00
44001;BME280;29660;42.892;24.710;2024-02-26T02:57:39;96452.19;;;11.48;100.00
44001;BME280;29660;42.892;24.710;2024-02-26T03:03:03;96447.25;;;11.64;100.00
44001;BME280;29660;42.892;24.710;2024-02-26T03:08:25;96435.22;;;11.75;98.87
44001;BME280;29660;42.892;24.710;2024-02-26T03:13:48;96333.28;;;11.20;97.30
44001;BME280;29660;42.892;24.710;2024-02-26T03:19:10;96360.09;;;11.37;96.92
44001;BME280;29660;42.892;24.710;2024-02-26T03:24:32;96451.84;;;11.72;100.00
44001;BME280;29660;42.892;24.710;2024-02-26T03:29:54;96424.31;;;11.10;100.00
44001;BME280;29660;42.892;24.710;2024-02-26T03:35:16;96451.34;;;11.17;100.00
44001;BME280;29660;42.892;24.710;2024-02-26T03:40:38;96455.22;;;11.11;100.00
44001;BME280;29660;42.892;24.710;2024-02-26T03:46:00;96345.56;;;10.17;100.00
44001;BME280;29660;42.892;24.710;2024-02-26T03:51:23;96381.66;;;10.37;100.00
44001;BME280;29660;42.892;24.710;2024-02-26T03:56:45;96467.88;;;10.82;100.00
44001;BME280;29660;42.892;24.710;2024-02-26T04:02:07;96467.69;;;10.79;100.00
44001;BME280;29660;42.892;24.710;2024-02-26T04:07:29;96467.31;;;10.72;100.00
44001;BME280;29660;42.892;24.710;2024-02-26T04:12:51;96470.94;;;10.76;100.00
44001;BME280;29660;42.892;24.710;2024-02-26T04:18:14;96434.59;;;10.44;100.00
44001;BME280;29660;42.892;24.710;2024-02-26T04:23:36;96311.31;;;9.61;100.00
44001;BME280;29660;42.892;24.710;2024-02-26T04:28:59;96469.22;;;10.57;100.00
44001;BME280;29660;42.892;24.710;2024-02-26T04:34:21;96469.13;;;10.49;100.00
44001;BME280;29660;42.892;24.710;2024-02-26T04:39:43;96462.53;;;10.46;100.00
44001;BME280;29660;42.892;24.710;2024-02-26T04:45:06;96466.75;;;10.47;100.00
44001;BME280;29660;42.892;24.710;2024-02-26T04:50:30;96465.75;;;10.57;100.00
44001;BME280;29660;42.892;24.710;2024-02-26T04:55:52;96460.59;;;10.61;100.00
44001;BME280;29660;42.892;24.710;2024-02-26T05:01:15;96472.50;;;10.54;100.00
44001;BME280;29660;42.892;24.710;2024-02-26T05:06:38;96473.47;;;10.59;100.00
44001;BME280;29660;42.892;24.710;2024-02-26T05:12:01;96468.53;;;10.66;100.00
44001;BME280;29660;42.892;24.710;2024-02-26T05:17:23;96468.59;;;10.61;100.00
44001;BME280;29660;42.892;24.710;2024-02-26T05:22:47;96483.31;;;10.72;100.00
44001;BME280;29660;42.892;24.710;2024-02-26T05:28:09;96484.72;;;10.69;100.00
44001;BME280;29660;42.892;24.710;2024-02-26T05:33:32;96411.19;;;10.13;100.00
44001;BME280;29660;42.892;24.710;2024-02-26T05:38:54;96485.59;;;10.65;100.00
44001;BME280;29660;42.892;24.710;2024-02-26T05:44:16;96487.47;;;10.64;100.00
44001;BME280;29660;42.892;24.710;2024-02-26T05:49:39;96494.88;;;10.67;100.00
44001;BME280;29660;42.892;24.710;2024-02-26T05:55:02;96369.50;;;9.81;100.00
44001;BME280;29660;42.892;24.710;2024-02-26T06:00:25;96496.94;;;10.70;100.00
44001;BME280;29660;42.892;24.710;2024-02-26T06:05:47;96511.16;;;10.79;100.00
44001;BME280;29660;42.892;24.710;2024-02-26T06:11:09;96538.41;;;10.76;100.00
44001;BME280;29660;42.892;24.710;2024-02-26T06:16:31;96522.28;;;10.95;100.00
44001;BME280;29660;42.892;24.710;2024-02-26T06:21:54;96121.94;;;8.34;100.00
44001;BME280;29660;42.892;24.710;2024-02-26T06:27:17;96529.94;;;11.11;100.00
44001;BME280;29660;42.892;24.710;2024-02-26T06:32:40;96514.78;;;11.20;100.00
44001;BME280;29660;42.892;24.710;2024-02-26T06:38:02;96531.72;;;11.15;100.00
44001;BME280;29660;42.892;24.710;2024-02-26T06:43:25;96530.34;;;11.04;100.00
44001;BME280;29660;42.892;24.710;2024-02-26T06:48:50;96535.00;;;11.12;100.00
44001;BME280;29660;42.892;24.710;2024-02-26T06:54:15;96529.78;;;11.29;100.00
44001;BME280;29660;42.892;24.710;2024-02-26T06:59:37;96502.00;;;11.30;100.00
44001;BME280;29660;42.892;24.710;2024-02-26T07:05:00;96525.97;;;11.67;100.00
44001;BME280;29660;42.892;24.710;2024-02-26T07:10:22;96531.94;;;11.64;100.00
44001;BME280;29660;42.892;24.710;2024-02-26T07:15:44;96535.44;;;11.73;100.00
44001;BME280;29660;42.892;24.710;2024-02-26T07:21:07;96524.94;;;11.76;100.00
44001;BME280;29660;42.892;24.710;2024-02-26T07:26:29;96533.00;;;12.08;100.00
44001;BME280;29660;42.892;24.710;2024-02-26T07:31:52;96420.31;;;11.52;100.00
44001;BME280;29660;42.892;24.710;2024-02-26T07:37:15;96528.75;;;12.46;99.73
44001;BME280;29660;42.892;24.710;2024-02-26T07:42:37;96534.63;;;12.74;95.75
44001;BME280;29660;42.892;24.710;2024-02-26T07:47:59;96497.47;;;12.73;95.64
44001;BME280;29660;42.892;24.710;2024-02-26T07:53:21;96515.63;;;13.11;92.58
44001;BME280;29660;42.892;24.710;2024-02-26T07:58:43;96423.66;;;12.81;89.38
44001;BME280;29660;42.892;24.710;2024-02-26T08:04:05;96461.16;;;13.24;85.82
44001;BME280;29660;42.892;24.710;2024-02-26T08:09:28;96518.75;;;13.82;82.49
44001;BME280;29660;42.892;24.710;2024-02-26T08:14:50;96519.34;;;13.96;77.40
44001;BME280;29660;42.892;24.710;2024-02-26T08:20:13;96519.47;;;14.09;78.59
44001;BME280;29660;42.892;24.710;2024-02-26T08:25:35;96481.03;;;13.96;77.79
44001;BME280;29660;42.892;24.710;2024-02-26T08:30:57;96519.13;;;14.57;75.04
44001;BME280;29660;42.892;24.710;2024-02-26T08:36:20;96517.28;;;14.79;74.05
44001;BME280;29660;42.892;24.710;2024-02-26T08:41:43;96531.84;;;14.98;71.67
44001;BME280;29660;42.892;24.710;2024-02-26T08:47:05;96489.13;;;14.85;69.98
44001;BME280;29660;42.892;24.710;2024-02-26T08:52:27;96526.75;;;15.27;70.65
44001;BME280;29660;42.892;24.710;2024-02-26T08:57:49;96523.53;;;15.33;69.47
44001;BME280;29660;42.892;24.710;2024-02-26T09:03:11;96520.59;;;15.68;66.73
44001;BME280;29660;42.892;24.710;2024-02-26T09:08:34;96517.38;;;15.87;66.84
44001;BME280;29660;42.892;24.710;2024-02-26T09:13:58;96513.25;;;16.02;61.82
44001;BME280;29660;42.892;24.710;2024-02-26T09:19:20;96451.94;;;15.83;60.10
44001;BME280;29660;42.892;24.710;2024-02-26T09:24:42;96509.50;;;16.27;55.25
44001;BME280;29660;42.892;24.710;2024-02-26T09:30:05;96506.94;;;16.43;54.53
44001;BME280;29660;42.892;24.710;2024-02-26T09:35:27;96211.25;;;14.66;51.98
44001;BME280;29660;42.892;24.710;2024-02-26T09:40:49;96390.09;;;15.95;52.10
44001;BME280;29660;42.892;24.710;2024-02-26T09:46:12;96344.94;;;15.76;50.84
44001;BME280;29660;42.892;24.710;2024-02-26T09:51:35;96489.06;;;16.87;52.36
44001;BME280;29660;42.892;24.710;2024-02-26T09:57:03;96480.81;;;17.08;52.21
44001;BME280;29660;42.892;24.710;2024-02-26T10:02:33;96481.03;;;17.15;49.48
44001;BME280;29660;42.892;24.710;2024-02-26T10:07:57;96482.66;;;17.32;49.29
44001;BME280;29660;42.892;24.710;2024-02-26T10:13:20;96375.66;;;16.64;46.50
44001;BME280;29660;42.892;24.710;2024-02-26T10:18:49;96468.94;;;17.37;44.52
44001;BME280;29660;42.892;24.710;2024-02-26T10:24:18;96448.31;;;17.57;43.25
44001;BME280;29660;42.892;24.710;2024-02-26T10:29:40;96446.53;;;17.93;43.47
44001;BME280;29660;42.892;24.710;2024-02-26T10:35:08;96433.75;;;18.06;40.36
44001;BME280;29660;42.892;24.710;2024-02-26T10:40:30;96371.78;;;17.78;41.27
44001;BME280;29660;42.892;24.710;2024-02-26T10:45:55;96281.22;;;17.45;39.74
44001;BME280;29660;42.892;24.710;2024-02-26T10:51:27;96413.53;;;18.31;39.10
44001;BME280;29660;42.892;24.710;2024-02-26T10:56:50;96305.22;;;17.82;39.43
44001;BME280;29660;42.892;24.710;2024-02-26T11:02:13;96400.72;;;18.79;37.82
44001;BME280;29660;42.892;24.710;2024-02-26T11:07:36;96400.50;;;19.27;37.61
44001;BME280;29660;42.892;24.710;2024-02-26T11:12:59;96400.66;;;19.57;37.00
44001;BME280;29660;42.892;24.710;2024-02-26T11:18:23;96284.75;;;18.90;36.38
44001;BME280;29660;42.892;24.710;2024-02-26T11:23:46;96365.84;;;19.55;35.65
44001;BME280;29660;42.892;24.710;2024-02-26T11:29:09;96352.72;;;19.11;35.38
44001;BME280;29660;42.892;24.710;2024-02-26T11:34:33;96265.25;;;18.23;35.29
44001;BME280;29660;42.892;24.710;2024-02-26T11:39:59;96229.69;;;18.17;35.64
44001;BME280;29660;42.892;24.710;2024-02-26T11:51:11;96371.41;;;19.20;34.54
44001;BME280;29660;42.892;24.710;2024-02-26T11:56:34;96362.22;;;19.25;32.62
44001;BME280;29660;42.892;24.710;2024-02-26T12:01:56;96352.31;;;19.32;32.52
44001;BME280;29660;42.892;24.710;2024-02-26T12:07:22;96364.66;;;19.53;33.04
44001;BME280;29660;42.892;24.710;2024-02-26T12:12:44;96195.66;;;18.51;33.21
44001;BME280;29660;42.892;24.710;2024-02-26T12:18:08;96367.94;;;19.62;33.74
44001;BME280;29660;42.892;24.710;2024-02-26T12:23:32;96366.78;;;19.63;32.11
44001;BME280;29660;42.892;24.710;2024-02-26T12:28:54;96252.44;;;18.97;32.58
44001;BME280;29660;42.892;24.710;2024-02-26T12:34:16;96358.03;;;19.70;32.27
44001;BME280;29660;42.892;24.710;2024-02-26T12:39:39;96220.38;;;18.73;32.94
44001;BME280;29660;42.892;24.710;2024-02-26T12:45:01;96364.72;;;19.56;33.13
44001;BME280;29660;42.892;24.710;2024-02-26T12:50:23;96354.69;;;19.34;33.42
44001;BME280;29660;42.892;24.710;2024-02-26T12:55:47;96269.59;;;18.66;33.08
44001;BME280;29660;42.892;24.710;2024-02-26T13:01:14;96259.78;;;18.58;32.35
44001;BME280;29660;42.892;24.710;2024-02-26T13:06:37;96379.19;;;19.22;34.14
44001;BME280;29660;42.892;24.710;2024-02-26T13:11:59;96382.75;;;19.29;33.47
44001;BME280;29660;42.892;24.710;2024-02-26T13:17:22;96381.22;;;19.28;33.17
44001;BME280;29660;42.892;24.710;2024-02-26T13:22:47;96383.56;;;19.30;33.09
44001;BME280;29660;42.892;24.710;2024-02-26T13:33:31;96397.28;;;19.02;33.95
44001;BME280;29660;42.892;24.710;2024-02-26T13:38:55;96402.06;;;18.89;33.41
44001;BME280;29660;42.892;24.710;2024-02-26T13:44:19;96388.00;;;18.80;34.10
44001;BME280;29660;42.892;24.710;2024-02-26T13:49:41;96402.28;;;18.80;33.83
44001;BME280;29660;42.892;24.710;2024-02-26T13:55:04;96403.94;;;18.69;34.22
44001;BME280;29660;42.892;24.710;2024-02-26T14:00:27;96370.06;;;18.36;34.73
44001;BME280;29660;42.892;24.710;2024-02-26T14:05:50;96407.91;;;18.56;34.23
44001;BME280;29660;42.892;24.710;2024-02-26T14:11:12;96422.31;;;18.44;34.89
44001;BME280;29660;42.892;24.710;2024-02-26T14:16:34;96424.84;;;18.37;34.68
44001;BME280;29660;42.892;24.710;2024-02-26T14:21:56;96424.25;;;18.28;34.75
44001;BME280;29660;42.892;24.710;2024-02-26T14:27:19;96433.16;;;18.12;35.16
44001;BME280;29660;42.892;24.710;2024-02-26T14:32:44;96439.22;;;18.09;35.27
44001;BME280;29660;42.892;24.710;2024-02-26T14:38:06;96369.56;;;17.52;35.85
44001;BME280;29660;42.892;24.710;2024-02-26T14:43:29;96448.69;;;17.87;35.92
44001;BME280;29660;42.892;24.710;2024-02-26T14:48:51;96348.81;;;17.08;36.26
44001;BME280;29660;42.892;24.710;2024-02-26T14:54:14;96468.56;;;17.67;36.14
44001;BME280;29660;42.892;24.710;2024-02-26T14:59:36;96465.53;;;17.53;37.12
44001;BME280;29660;42.892;24.710;2024-02-26T15:04:58;96467.81;;;17.38;36.89
44001;BME280;29660;42.892;24.710;2024-02-26T15:10:21;96471.00;;;17.28;37.38
44001;BME280;29660;42.892;24.710;2024-02-26T15:15:43;96406.75;;;16.74;37.83
44001;BME280;29660;42.892;24.710;2024-02-26T15:21:06;96475.69;;;17.03;37.92
44001;BME280;29660;42.892;24.710;2024-02-26T15:26:29;96473.81;;;16.91;38.29
44001;BME280;29660;42.892;24.710;2024-02-26T15:31:51;96477.88;;;16.73;38.92
44001;BME280;29660;42.892;24.710;2024-02-26T15:37:13;96478.53;;;16.58;40.00
44001;BME280;29660;42.892;24.710;2024-02-26T15:42:35;96489.06;;;16.38;40.79
44001;BME280;29660;42.892;24.710;2024-02-26T15:47:58;96343.28;;;15.26;41.58
44001;BME280;29660;42.892;24.710;2024-02-26T15:53:20;96462.25;;;15.60;42.74
44001;BME280;29660;42.892;24.710;2024-02-26T15:58:42;96511.25;;;15.65;43.56
44001;BME280;29660;42.892;24.710;2024-02-26T16:04:04;96531.06;;;15.40;44.57
44001;BME280;29660;42.892;24.710;2024-02-26T16:09:27;96536.81;;;15.09;46.10
44001;BME280;29660;42.892;24.710;2024-02-26T16:14:50;96472.81;;;14.39;46.91
44001;BME280;29660;42.892;24.710;2024-02-26T16:20:15;96546.44;;;14.59;46.54
44001;BME280;29660;42.892;24.710;2024-02-26T16:25:37;96556.91;;;14.43;47.67
44001;BME280;29660;42.892;24.710;2024-02-26T16:31:00;96446.31;;;13.44;49.39
44001;BME280;29660;42.892;24.710;2024-02-26T16:36:22;96570.75;;;13.98;49.55
44001;BME280;29660;42.892;24.710;2024-02-26T16:41:44;96573.94;;;13.74;49.07
44001;BME280;29660;42.892;24.710;2024-02-26T16:47:06;96582.94;;;13.53;49.80
44001;BME280;29660;42.892;24.710;2024-02-26T16:52:29;96584.63;;;13.22;51.64
44001;BME280;29660;42.892;24.710;2024-02-26T16:57:51;96517.63;;;12.62;52.59
44001;BME280;29660;42.892;24.710;2024-02-26T17:03:13;96600.97;;;12.95;54.41
44001;BME280;29660;42.892;24.710;2024-02-26T17:08:37;96502.41;;;11.91;56.99
44001;BME280;29660;42.892;24.710;2024-02-26T17:14:00;96607.31;;;12.28;56.87
44001;BME280;29660;42.892;24.710;2024-02-26T17:19:23;96589.31;;;12.11;57.64
44001;BME280;29660;42.892;24.710;2024-02-26T17:24:46;96627.31;;;12.31;58.38
44001;BME280;29660;42.892;24.710;2024-02-26T17:30:09;96529.38;;;11.59;60.43
44001;BME280;29660;42.892;24.710;2024-02-26T17:35:31;96547.00;;;11.60;63.34
44001;BME280;29660;42.892;24.710;2024-02-26T17:40:53;96639.63;;;12.18;64.39
44001;BME280;29660;42.892;24.710;2024-02-26T17:46:16;96622.53;;;11.96;64.41
44001;BME280;29660;42.892;24.710;2024-02-26T17:51:39;96431.19;;;10.66;64.34
44001;BME280;29660;42.892;24.710;2024-02-26T17:57:01;96658.19;;;11.78;65.67
44001;BME280;29660;42.892;24.710;2024-02-26T18:02:23;96661.31;;;11.71;66.07
44001;BME280;29660;42.892;24.710;2024-02-26T18:07:45;96658.84;;;11.61;67.29
44001;BME280;29660;42.892;24.710;2024-02-26T18:13:07;96670.84;;;11.50;68.03
44001;BME280;29660;42.892;24.710;2024-02-26T18:18:30;96199.84;;;8.30;70.55
44001;BME280;29660;42.892;24.710;2024-02-26T18:23:53;96540.81;;;10.37;70.23
44001;BME280;29660;42.892;24.710;2024-02-26T18:29:15;96676.94;;;11.14;71.04
44001;BME280;29660;42.892;24.710;2024-02-26T18:34:37;96678.22;;;11.17;72.88
44001;BME280;29660;42.892;24.710;2024-02-26T18:40:01;96684.53;;;11.07;74.87
44001;BME280;29660;42.892;24.710;2024-02-26T18:45:28;96689.28;;;10.96;76.91
44001;BME280;29660;42.892;24.710;2024-02-26T18:50:51;96687.69;;;10.68;80.19
44001;BME280;29660;42.892;24.710;2024-02-26T18:56:13;96697.25;;;10.69;80.30
44001;BME280;29660;42.892;24.710;2024-02-26T19:01:36;96703.09;;;10.71;79.86
44001;BME280;29660;42.892;24.710;2024-02-26T19:07:00;96628.72;;;10.23;80.93
44001;BME280;29660;42.892;24.710;2024-02-26T19:12:22;96700.22;;;10.53;83.04
44001;BME280;29660;42.892;24.710;2024-02-26T19:17:47;96699.81;;;10.46;84.16
44001;BME280;29660;42.892;24.710;2024-02-26T19:23:11;96574.88;;;9.61;84.81
44001;BME280;29660;42.892;24.710;2024-02-26T19:28:35;96646.84;;;10.07;85.81
44001;BME280;29660;42.892;24.710;2024-02-26T19:33:57;96711.34;;;10.42;87.22
44001;BME280;29660;42.892;24.710;2024-02-26T19:39:20;96609.34;;;9.71;86.08
44001;BME280;29660;42.892;24.710;2024-02-26T19:44:43;96718.25;;;10.24;88.75
44001;BME280;29660;42.892;24.710;2024-02-26T19:50:06;96718.22;;;10.10;89.87
44001;BME280;29660;42.892;24.710;2024-02-26T19:55:29;96715.81;;;10.08;89.56
44001;BME280;29660;42.892;24.710;2024-02-26T20:00:51;96693.38;;;9.77;90.87
44001;BME280;29660;42.892;24.710;2024-02-26T20:06:14;96731.03;;;9.89;92.02
44001;BME280;29660;42.892;24.710;2024-02-26T20:11:36;96745.34;;;9.93;93.43
44001;BME280;29660;42.892;24.710;2024-02-26T20:17:01;96749.84;;;9.79;94.12
44001;BME280;29660;42.892;24.710;2024-02-26T20:22:24;96752.28;;;9.75;93.92
44001;BME280;29660;42.892;24.710;2024-02-26T20:27:46;96679.38;;;9.09;92.64
44001;BME280;29660;42.892;24.710;2024-02-26T20:33:09;96778.00;;;9.61;96.20
44001;BME280;29660;42.892;24.710;2024-02-26T20:38:31;96778.88;;;9.56;95.76
44001;BME280;29660;42.892;24.710;2024-02-26T20:43:53;96776.84;;;9.48;96.71
44001;BME280;29660;42.892;24.710;2024-02-26T20:49:15;96786.94;;;9.51;96.07
44001;BME280;29660;42.892;24.710;2024-02-26T20:54:39;96790.78;;;9.40;97.15
44001;BME280;29660;42.892;24.710;2024-02-26T21:00:04;96803.34;;;9.34;98.42
44001;BME280;29660;42.892;24.710;2024-02-26T21:05:27;96805.28;;;9.29;100.00
44001;BME280;29660;42.892;24.710;2024-02-26T21:10:49;96731.19;;;8.88;99.97
44001;BME280;29660;42.892;24.710;2024-02-26T21:16:13;96796.53;;;9.23;99.50
44001;BME280;29660;42.892;24.710;2024-02-26T21:21:35;96793.59;;;9.25;100.00
44001;BME280;29660;42.892;24.710;2024-02-26T21:26:57;96725.53;;;8.71;100.00
44001;BME280;29660;42.892;24.710;2024-02-26T21:32:20;96803.78;;;9.18;100.00
44001;BME280;29660;42.892;24.710;2024-02-26T21:37:42;96796.31;;;9.20;100.00
44001;BME280;29660;42.892;24.710;2024-02-26T21:43:04;96807.06;;;9.09;100.00
44001;BME280;29660;42.892;24.710;2024-02-26T21:48:26;96811.44;;;8.95;100.00
44001;BME280;29660;42.892;24.710;2024-02-26T21:53:48;96785.69;;;8.62;100.00
44001;BME280;29660;42.892;24.710;2024-02-26T21:59:11;96332.50;;;5.49;100.00
44001;BME280;29660;42.892;24.710;2024-02-26T22:04:33;96802.44;;;8.23;100.00
44001;BME280;29660;42.892;24.710;2024-02-26T22:09:55;96836.00;;;8.53;100.00
44001;BME280;29660;42.892;24.710;2024-02-26T22:15:17;96784.97;;;8.11;100.00
44001;BME280;29660;42.892;24.710;2024-02-26T22:20:41;96703.72;;;7.66;100.00
44001;BME280;29660;42.892;24.710;2024-02-26T22:26:04;96848.28;;;8.44;100.00
44001;BME280;29660;42.892;24.710;2024-02-26T22:31:26;96857.59;;;8.36;100.00
44001;BME280;29660;42.892;24.710;2024-02-26T22:36:52;96855.03;;;8.26;100.00
44001;BME280;29660;42.892;24.710;2024-02-26T22:42:14;96843.91;;;8.19;100.00
44001;BME280;29660;42.892;24.710;2024-02-26T22:47:37;96841.81;;;8.10;100.00
44001;BME280;29660;42.892;24.710;2024-02-26T22:52:59;96850.88;;;8.04;100.00
44001;BME280;29660;42.892;24.710;2024-02-26T22:58:22;96850.06;;;8.09;100.00
44001;BME280;29660;42.892;24.710;2024-02-26T23:03:44;96858.84;;;8.04;100.00
44001;BME280;29660;42.892;24.710;2024-02-26T23:09:06;96861.50;;;8.04;100.00
44001;BME280;29660;42.892;24.710;2024-02-26T23:14:31;96862.59;;;7.98;100.00
44001;BME280;29660;42.892;24.710;2024-02-26T23:19:54;96863.69;;;7.92;100.00
44001;BME280;29660;42.892;24.710;2024-02-26T23:25:17;96867.16;;;7.87;100.00
44001;BME280;29660;42.892;24.710;2024-02-26T23:30:40;96873.06;;;7.74;100.00
44001;BME280;29660;42.892;24.710;2024-02-26T23:36:02;96742.53;;;6.87;100.00
44001;BME280;29660;42.892;24.710;2024-02-26T23:41:25;96887.13;;;7.70;100.00
44001;BME280;29660;42.892;24.710;2024-02-26T23:46:49;96837.91;;;7.28;100.00
44001;BME280;29660;42.892;24.710;2024-02-26T23:52:11;96895.69;;;7.51;100.00
44001;BME280;29660;42.892;24.710;2024-02-26T23:57:33;96901.78;;;7.52;100.00
